Time,TemperatureF,DewpointF,PressureIn,WindDirection,WindDirectionDegrees,WindSpeedMPH,WindSpeedGustMPH,Humidity,HourlyPrecipIn,Conditions,Clouds,dailyrainin,SoftwareType,DateUTC
2013-03-30 00:00:00,42.1,36.4,30.03,West,267,1.0,1.0,80,0.00,,,0.00,Wunderground v.1.15,2013-03-30 04:00:00,
2013-03-30 00:10:00,41.9,36.2,30.04,NNW,331,0.0,0.0,80,0.00,,,0.00,Wunderground v.1.15,2013-03-30 04:10:00,
2013-03-30 00:20:00,41.5,35.8,30.04,NNW,331,0.0,0.0,80,0.00,,,0.00,Wunderground v.1.15,2013-03-30 04:20:00,
2013-03-30 00:30:00,41.2,35.8,30.03,NW,309,0.0,0.0,81,0.00,,,0.00,Wunderground v.1.15,2013-03-30 04:30:00,
2013-03-30 00:40:00,41.1,36.0,30.04,NNW,328,0.0,1.0,82,0.00,,,0.00,Wunderground v.1.15,2013-03-30 04:40:00,
2013-03-30 00:50:00,41.1,36.0,30.03,NE,50,1.0,1.0,82,0.00,,,0.00,Wunderground v.1.15,2013-03-30 04:50:00,
2013-03-30 01:00:00,40.7,35.9,30.03,North,354,1.0,1.0,83,0.00,,,0.00,Wunderground v.1.15,2013-03-30 05:00:00,
2013-03-30 01:10:00,40.4,35.9,30.03,NNW,343,1.0,1.0,84,0.00,,,0.00,Wunderground v.1.15,2013-03-30 05:10:00,
2013-03-30 01:20:00,40.2,36.1,30.04,NW,314,0.0,0.0,85,0.00,,,0.00,Wunderground v.1.15,2013-03-30 05:20:00,
2013-03-30 01:30:00,39.9,36.1,30.04,NNE,23,0.0,0.0,86,0.00,,,0.00,Wunderground v.1.15,2013-03-30 05:30:00,
2013-03-30 01:40:00,39.5,35.7,30.04,NE,51,0.0,0.0,86,0.00,,,0.00,Wunderground v.1.15,2013-03-30 05:40:00,
2013-03-30 01:50:00,39.3,35.8,30.04,North,359,1.0,1.0,87,0.00,,,0.00,Wunderground v.1.15,2013-03-30 05:50:00,
2013-03-30 02:00:00,39.3,35.8,30.03,NNW,340,0.0,1.0,87,0.00,,,0.00,Wunderground v.1.15,2013-03-30 06:00:00,
2013-03-30 02:10:00,39.2,35.7,30.04,West,280,0.0,0.0,87,0.00,,,0.00,Wunderground v.1.15,2013-03-30 06:10:00,
2013-03-30 02:20:00,38.9,35.6,30.03,NW,317,1.0,1.0,88,0.00,,,0.00,Wunderground v.1.15,2013-03-30 06:20:00,
2013-03-30 02:30:00,38.7,35.7,30.04,North,1,0.0,0.0,89,0.00,,,0.00,Wunderground v.1.15,2013-03-30 06:30:00,
2013-03-30 02:40:00,38.8,36.1,30.04,NNW,337,0.0,0.0,90,0.00,,,0.00,Wunderground v.1.15,2013-03-30 06:40:00,
2013-03-30 02:50:00,38.8,36.1,30.03,NW,308,0.0,0.0,90,0.00,,,0.00,Wunderground v.1.15,2013-03-30 06:50:00,
2013-03-30 03:10:00,39.1,36.1,30.03,NW,310,1.0,1.0,89,0.00,,,0.00,Wunderground v.1.15,2013-03-30 07:10:00,
2013-03-30 03:20:00,39.7,36.1,30.03,WNW,287,1.0,1.0,87,0.00,,,0.00,Wunderground v.1.15,2013-03-30 07:20:00,
2013-03-30 03:30:00,40.6,36.1,30.03,East,87,2.0,2.0,84,0.00,,,0.00,Wunderground v.1.15,2013-03-30 07:30:00,
2013-03-30 03:40:00,41.3,36.5,30.03,WNW,302,1.0,1.0,83,0.00,,,0.00,Wunderground v.1.15,2013-03-30 07:40:00,
2013-03-30 03:50:00,41.2,36.7,30.03,NNW,328,1.0,4.0,84,0.00,,,0.00,Wunderground v.1.15,2013-03-30 07:50:00,
2013-03-30 04:00:00,41.1,36.3,30.04,WNW,294,2.0,2.0,83,0.00,,,0.00,Wunderground v.1.15,2013-03-30 08:00:00,
2013-03-30 04:10:00,41.1,36.0,30.04,WNW,295,2.0,2.0,82,0.00,,,0.00,Wunderground v.1.15,2013-03-30 08:10:00,
2013-03-30 04:20:00,41.1,35.7,30.03,West,264,1.0,1.0,81,0.00,,,0.00,Wunderground v.1.15,2013-03-30 08:20:00,
2013-03-30 04:30:00,41.2,35.8,30.03,NW,317,1.0,1.0,81,0.00,,,0.00,Wunderground v.1.15,2013-03-30 08:30:00,
2013-03-30 04:40:00,41.2,35.8,30.03,NW,308,1.0,4.0,81,0.00,,,0.00,Wunderground v.1.15,2013-03-30 08:40:00,
2013-03-30 04:50:00,41.2,35.8,30.03,WNW,295,2.0,3.0,81,0.00,,,0.00,Wunderground v.1.15,2013-03-30 08:50:00,
2013-03-30 05:00:00,41.2,35.8,30.03,NNW,338,1.0,5.0,81,0.00,,,0.00,Wunderground v.1.15,2013-03-30 09:00:00,
2013-03-30 05:10:00,41.1,35.4,30.03,NW,325,1.0,1.0,80,0.00,,,0.00,Wunderground v.1.15,2013-03-30 09:10:00,
2013-03-30 05:20:00,41.1,35.4,30.03,NW,325,1.0,1.0,80,0.00,,,0.00,Wunderground v.1.15,2013-03-30 09:20:00,
2013-03-30 05:30:00,41.2,35.5,30.04,West,277,1.0,1.0,80,0.00,,,0.00,Wunderground v.1.15,2013-03-30 09:30:00,
2013-03-30 05:40:00,41.1,35.4,30.04,WNW,293,1.0,1.0,80,0.00,,,0.00,Wunderground v.1.15,2013-03-30 09:40:00,
2013-03-30 05:50:00,40.9,35.5,30.04,NNE,16,1.0,1.0,81,0.00,,,0.00,Wunderground v.1.15,2013-03-30 09:50:00,
2013-03-30 06:00:00,40.8,35.1,30.04,West,264,2.0,4.0,80,0.00,,,0.00,Wunderground v.1.15,2013-03-30 10:00:00,
2013-03-30 06:10:00,40.8,35.4,30.05,NW,321,2.0,2.0,81,0.00,,,0.00,Wunderground v.1.15,2013-03-30 10:10:00,
2013-03-30 06:20:00,40.8,35.1,30.05,WNW,290,2.0,5.0,80,0.00,,,0.00,Wunderground v.1.15,2013-03-30 10:20:00,
2013-03-30 06:30:00,40.9,35.2,30.05,WSW,250,2.0,2.0,80,0.00,,,0.00,Wunderground v.1.15,2013-03-30 10:30:00,
2013-03-30 06:40:00,41.0,35.0,30.05,NW,315,2.0,2.0,79,0.00,,,0.00,Wunderground v.1.15,2013-03-30 10:40:00,
2013-03-30 06:50:00,40.9,35.2,30.05,WSW,249,2.0,2.0,80,0.00,,,0.00,Wunderground v.1.15,2013-03-30 10:50:00,
2013-03-30 07:00:00,41.0,35.0,30.06,WNW,294,2.0,2.0,79,0.00,,,0.00,Wunderground v.1.15,2013-03-30 11:00:00,
2013-03-30 07:10:00,41.1,35.1,30.06,NW,314,2.0,2.0,79,0.00,,,0.00,Wunderground v.1.15,2013-03-30 11:10:00,
2013-03-30 07:20:00,41.2,34.9,30.06,NNW,335,3.0,7.0,78,0.00,,,0.00,Wunderground v.1.15,2013-03-30 11:20:00,
2013-03-30 07:30:00,41.3,35.0,30.06,NNE,33,3.0,3.0,78,0.00,,,0.00,Wunderground v.1.15,2013-03-30 11:30:00,
2013-03-30 07:40:00,41.4,35.1,30.06,NW,311,2.0,2.0,78,0.00,,,0.00,Wunderground v.1.15,2013-03-30 11:40:00,
2013-03-30 07:50:00,41.5,35.2,30.07,West,259,2.0,3.0,78,0.00,,,0.00,Wunderground v.1.15,2013-03-30 11:50:00,
2013-03-30 08:00:00,41.7,35.0,30.07,NW,315,2.0,5.0,77,0.00,,,0.00,Wunderground v.1.15,2013-03-30 12:00:00,
2013-03-30 08:10:00,41.9,35.2,30.07,NNE,32,3.0,3.0,77,0.00,,,0.00,Wunderground v.1.15,2013-03-30 12:10:00,
2013-03-30 08:20:00,42.0,35.3,30.07,NNW,340,2.0,4.0,77,0.00,,,0.00,Wunderground v.1.15,2013-03-30 12:20:00,
2013-03-30 08:30:00,42.3,35.3,30.07,West,259,2.0,2.0,76,0.00,,,0.00,Wunderground v.1.15,2013-03-30 12:30:00,
2013-03-30 08:40:00,43.3,35.6,30.07,NNE,22,3.0,3.0,74,0.00,,,0.00,Wunderground v.1.15,2013-03-30 12:40:00,
2013-03-30 08:50:00,44.7,35.5,30.07,North,352,2.0,2.0,70,0.00,,,0.00,Wunderground v.1.15,2013-03-30 12:50:00,
2013-03-30 09:00:00,45.5,35.5,30.07,NE,36,3.0,8.0,68,0.00,,,0.00,Wunderground v.1.15,2013-03-30 13:00:00,
2013-03-30 09:10:00,44.9,34.6,30.07,NW,316,3.0,3.0,67,0.00,,,0.00,Wunderground v.1.15,2013-03-30 13:10:00,
2013-03-30 09:20:00,45.1,35.2,30.07,NW,315,3.0,7.0,68,0.00,,,0.00,Wunderground v.1.15,2013-03-30 13:20:00,
2013-03-30 09:30:00,46.0,35.3,30.07,North,352,3.0,3.0,66,0.00,,,0.00,Wunderground v.1.15,2013-03-30 13:30:00,
2013-03-30 09:40:00,46.6,36.2,30.08,NW,325,2.0,2.0,67,0.00,,,0.00,Wunderground v.1.15,2013-03-30 13:40:00,
2013-03-30 09:50:00,46.5,35.7,30.07,NNW,331,3.0,3.0,66,0.00,,,0.00,Wunderground v.1.15,2013-03-30 13:50:00,
2013-03-30 10:00:00,46.0,35.3,30.08,NW,310,4.0,4.0,66,0.00,,,0.00,Wunderground v.1.15,2013-03-30 14:00:00,
2013-03-30 10:10:00,46.6,35.8,30.08,West,262,3.0,5.0,66,0.00,,,0.00,Wunderground v.1.15,2013-03-30 14:10:00,
2013-03-30 10:20:00,46.4,35.7,30.08,WNW,284,3.0,3.0,66,0.00,,,0.00,Wunderground v.1.15,2013-03-30 14:20:00,
2013-03-30 10:30:00,47.3,35.7,30.08,West,274,2.0,4.0,64,0.00,,,0.00,Wunderground v.1.15,2013-03-30 14:30:00,
2013-03-30 10:40:00,47.3,35.7,30.08,NNW,331,4.0,4.0,64,0.00,,,0.00,Wunderground v.1.15,2013-03-30 14:40:00,
2013-03-30 10:50:00,48.0,35.6,30.08,NNE,33,2.0,2.0,62,0.00,,,0.00,Wunderground v.1.15,2013-03-30 14:50:00,
2013-03-30 11:00:00,48.2,35.8,30.08,NE,39,3.0,3.0,62,0.00,,,0.00,Wunderground v.1.15,2013-03-30 15:00:00,
2013-03-30 11:10:00,48.9,36.9,30.07,NNE,32,2.0,2.0,63,0.00,,,0.00,Wunderground v.1.15,2013-03-30 15:10:00,
2013-03-30 11:20:00,49.5,36.6,30.08,WNW,291,2.0,2.0,61,0.00,,,0.00,Wunderground v.1.15,2013-03-30 15:20:00,
2013-03-30 11:30:00,49.3,36.4,30.08,NW,308,2.0,3.0,61,0.00,,,0.00,Wunderground v.1.15,2013-03-30 15:30:00,
2013-03-30 11:40:00,49.1,35.8,30.07,WNW,294,2.0,2.0,60,0.00,,,0.00,Wunderground v.1.15,2013-03-30 15:40:00,
2013-03-30 11:50:00,49.6,34.5,30.07,West,278,2.0,2.0,56,0.00,,,0.00,Wunderground v.1.15,2013-03-30 15:50:00,
2013-03-30 12:00:00,50.1,35.0,30.07,West,269,2.0,2.0,56,0.00,,,0.00,Wunderground v.1.15,2013-03-30 16:00:00,
2013-03-30 12:10:00,50.2,34.2,30.07,WNW,287,2.0,2.0,54,0.00,,,0.00,Wunderground v.1.15,2013-03-30 16:10:00,
2013-03-30 12:20:00,49.7,34.2,30.07,NNE,23,3.0,5.0,55,0.00,,,0.00,Wunderground v.1.15,2013-03-30 16:20:00,
2013-03-30 12:30:00,50.1,33.6,30.07,WNW,296,2.0,2.0,53,0.00,,,0.00,Wunderground v.1.15,2013-03-30 16:30:00,
2013-03-30 12:40:00,50.2,34.2,30.07,WNW,301,3.0,3.0,54,0.00,,,0.00,Wunderground v.1.15,2013-03-30 16:40:00,
2013-03-30 12:50:00,50.6,33.6,30.07,ENE,76,2.0,8.0,52,0.00,,,0.00,Wunderground v.1.15,2013-03-30 16:50:00,
2013-03-30 13:00:00,51.0,34.0,30.07,North,358,3.0,6.0,52,0.00,,,0.00,Wunderground v.1.15,2013-03-30 17:00:00,
2013-03-30 13:10:00,51.4,33.4,30.07,NNW,333,2.0,2.0,50,0.00,,,0.00,Wunderground v.1.15,2013-03-30 17:10:00,
2013-03-30 13:20:00,51.0,32.5,30.07,NW,304,2.0,2.0,49,0.00,,,0.00,Wunderground v.1.15,2013-03-30 17:20:00,
2013-03-30 13:30:00,50.8,32.3,30.07,NW,308,3.0,4.0,49,0.00,,,0.00,Wunderground v.1.15,2013-03-30 17:30:00,
2013-03-30 13:40:00,51.2,33.2,30.07,SE,136,2.0,2.0,50,0.00,,,0.00,Wunderground v.1.15,2013-03-30 17:40:00,
2013-03-30 13:50:00,51.8,32.7,30.06,East,81,2.0,2.0,48,0.00,,,0.00,Wunderground v.1.15,2013-03-30 17:50:00,
2013-03-30 14:00:00,50.4,36.2,30.06,ESE,108,3.0,3.0,58,0.00,,,0.00,Wunderground v.1.15,2013-03-30 18:00:00,
2013-03-30 14:10:00,50.5,36.3,30.06,ENE,71,2.0,2.0,58,0.00,,,0.00,Wunderground v.1.15,2013-03-30 18:10:00,
2013-03-30 14:20:00,50.3,36.5,30.06,SE,139,2.0,2.0,59,0.00,,,0.00,Wunderground v.1.15,2013-03-30 18:20:00,
2013-03-30 14:30:00,47.8,37.4,30.06,SE,126,4.0,6.0,67,0.00,,,0.00,Wunderground v.1.15,2013-03-30 18:30:00,
2013-03-30 14:40:00,47.9,36.7,30.06,SE,129,5.0,5.0,65,0.00,,,0.00,Wunderground v.1.15,2013-03-30 18:40:00,
2013-03-30 14:50:00,48.4,37.9,30.06,SE,139,3.0,3.0,67,0.00,,,0.00,Wunderground v.1.15,2013-03-30 18:50:00,
2013-03-30 15:00:00,47.4,37.7,30.06,SE,137,4.0,4.0,69,0.00,,,0.00,Wunderground v.1.15,2013-03-30 19:00:00,
2013-03-30 15:10:00,47.2,37.2,30.06,SE,141,4.0,4.0,68,0.00,,,0.00,Wunderground v.1.15,2013-03-30 19:10:00,
2013-03-30 15:20:00,47.2,37.5,30.06,SSW,193,3.0,5.0,69,0.00,,,0.00,Wunderground v.1.15,2013-03-30 19:20:00,
2013-03-30 15:30:00,47.5,38.6,30.06,ESE,117,3.0,3.0,71,0.00,,,0.00,Wunderground v.1.15,2013-03-30 19:30:00,
2013-03-30 15:40:00,47.1,39.2,30.06,SSE,150,3.0,3.0,74,0.00,,,0.00,Wunderground v.1.15,2013-03-30 19:40:00,
2013-03-30 15:50:00,47.7,38.0,30.06,South,191,3.0,3.0,69,0.00,,,0.00,Wunderground v.1.15,2013-03-30 19:50:00,
2013-03-30 16:00:00,47.8,38.5,30.06,SSE,160,3.0,4.0,70,0.00,,,0.00,Wunderground v.1.15,2013-03-30 20:00:00,
2013-03-30 16:10:00,47.5,38.9,30.06,SE,139,3.0,3.0,72,0.00,,,0.00,Wunderground v.1.15,2013-03-30 20:10:00,
2013-03-30 16:20:00,47.0,39.1,30.06,SSE,155,3.0,3.0,74,0.00,,,0.00,Wunderground v.1.15,2013-03-30 20:20:00,
2013-03-30 16:30:00,47.1,39.6,30.06,SE,139,2.0,2.0,75,0.00,,,0.00,Wunderground v.1.15,2013-03-30 20:30:00,
2013-03-30 16:40:00,47.3,39.4,30.06,SSE,158,2.0,2.0,74,0.00,,,0.00,Wunderground v.1.15,2013-03-30 20:40:00,
2013-03-30 16:50:00,47.4,39.2,30.06,SSW,192,2.0,2.0,73,0.00,,,0.00,Wunderground v.1.15,2013-03-30 20:50:00,
2013-03-30 17:00:00,47.1,38.9,30.06,WSW,243,2.0,2.0,73,0.00,,,0.00,Wunderground v.1.15,2013-03-30 21:00:00,
2013-03-30 17:10:00,46.5,38.7,30.06,SE,142,2.0,2.0,74,0.00,,,0.00,Wunderground v.1.15,2013-03-30 21:10:00,
2013-03-30 17:20:00,46.4,38.9,30.06,West,259,2.0,2.0,75,0.00,,,0.00,Wunderground v.1.15,2013-03-30 21:20:00,
2013-03-30 17:30:00,46.4,38.9,30.06,SSW,206,1.0,2.0,75,0.00,,,0.00,Wunderground v.1.15,2013-03-30 21:30:00,
2013-03-30 17:40:00,45.9,39.1,30.06,SW,235,2.0,2.0,77,0.00,,,0.00,Wunderground v.1.15,2013-03-30 21:40:00,
2013-03-30 17:50:00,45.5,38.7,30.06,SSW,203,1.0,1.0,77,0.00,,,0.00,Wunderground v.1.15,2013-03-30 21:50:00,
2013-03-30 18:00:00,45.1,38.0,30.07,SW,229,2.0,2.0,76,0.00,,,0.00,Wunderground v.1.15,2013-03-30 22:00:00,
2013-03-30 18:10:00,44.7,37.9,30.07,SW,229,1.0,1.0,77,0.00,,,0.00,Wunderground v.1.15,2013-03-30 22:10:00,
2013-03-30 18:20:00,44.5,38.4,30.07,WSW,240,1.0,1.0,79,0.00,,,0.00,Wunderground v.1.15,2013-03-30 22:20:00,
2013-03-30 18:30:00,44.3,38.2,30.07,NNW,328,1.0,2.0,79,0.00,,,0.00,Wunderground v.1.15,2013-03-30 22:30:00,
2013-03-30 18:40:00,43.7,37.9,30.07,WNW,291,1.0,1.0,80,0.00,,,0.00,Wunderground v.1.15,2013-03-30 22:40:00,
2013-03-30 18:50:00,43.2,38.1,30.08,West,281,1.0,1.0,82,0.00,,,0.00,Wunderground v.1.15,2013-03-30 22:50:00,
2013-03-30 19:00:00,42.6,37.8,30.08,NW,308,1.0,2.0,83,0.00,,,0.00,Wunderground v.1.15,2013-03-30 23:00:00,
2013-03-30 19:10:00,42.2,37.7,30.08,NE,34,1.0,1.0,84,0.00,,,0.00,Wunderground v.1.15,2013-03-30 23:10:00,
2013-03-30 19:20:00,42.1,37.6,30.08,WSW,238,2.0,2.0,84,0.00,,,0.00,Wunderground v.1.15,2013-03-30 23:20:00,
2013-03-30 19:30:00,41.9,37.7,30.08,SW,214,1.0,1.0,85,0.00,,,0.00,Wunderground v.1.15,2013-03-30 23:30:00,
2013-03-30 19:40:00,41.7,37.5,30.08,SW,225,1.0,2.0,85,0.00,,,0.00,Wunderground v.1.15,2013-03-30 23:40:00,
2013-03-30 19:50:00,41.6,37.1,30.08,SE,146,1.0,1.0,84,0.00,,,0.00,Wunderground v.1.15,2013-03-30 23:50:00,
2013-03-30 20:00:00,41.6,37.4,30.08,WSW,242,2.0,2.0,85,0.00,,,0.00,Wunderground v.1.15,2013-03-31 00:00:00,
2013-03-30 20:10:00,41.5,37.3,30.09,WSW,249,1.0,1.0,85,0.00,,,0.00,Wunderground v.1.15,2013-03-31 00:10:00,
2013-03-30 20:20:00,41.5,37.3,30.09,WSW,245,1.0,1.0,85,0.00,,,0.00,Wunderground v.1.15,2013-03-31 00:20:00,
2013-03-30 20:30:00,41.4,37.5,30.09,WSW,253,1.0,1.0,86,0.00,,,0.00,Wunderground v.1.15,2013-03-31 00:30:00,
2013-03-30 20:40:00,41.2,37.6,30.10,SW,228,1.0,1.0,87,0.00,,,0.00,Wunderground v.1.15,2013-03-31 00:40:00,
2013-03-30 20:50:00,41.1,37.8,30.10,SW,233,1.0,1.0,88,0.00,,,0.00,Wunderground v.1.15,2013-03-31 00:50:00,
2013-03-30 21:00:00,41.0,37.7,30.10,SW,233,1.0,2.0,88,0.00,,,0.00,Wunderground v.1.15,2013-03-31 01:00:00,
2013-03-30 21:10:00,40.7,37.4,30.10,WNW,287,0.0,0.0,88,0.00,,,0.00,Wunderground v.1.15,2013-03-31 01:10:00,
2013-03-30 21:20:00,40.4,37.4,30.10,WSW,247,0.0,2.0,89,0.00,,,0.00,Wunderground v.1.15,2013-03-31 01:20:00,
2013-03-30 21:30:00,40.7,37.4,30.11,West,259,1.0,1.0,88,0.00,,,0.00,Wunderground v.1.15,2013-03-31 01:30:00,
2013-03-30 21:40:00,40.2,37.2,30.10,South,188,0.0,0.0,89,0.00,,,0.00,Wunderground v.1.15,2013-03-31 01:40:00,
2013-03-30 21:50:00,39.9,36.9,30.11,NNE,19,0.0,0.0,89,0.00,,,0.00,Wunderground v.1.15,2013-03-31 01:50:00,
2013-03-30 22:00:00,40.4,37.7,30.11,West,276,1.0,1.0,90,0.00,,,0.00,Wunderground v.1.15,2013-03-31 02:00:00,
2013-03-30 22:10:00,40.6,37.3,30.11,West,268,1.0,1.0,88,0.00,,,0.00,Wunderground v.1.15,2013-03-31 02:10:00,
2013-03-30 22:20:00,40.2,37.2,30.11,West,269,0.0,1.0,89,0.00,,,0.00,Wunderground v.1.15,2013-03-31 02:20:00,
2013-03-30 22:30:00,40.2,37.2,30.11,SSW,198,1.0,1.0,89,0.00,,,0.00,Wunderground v.1.15,2013-03-31 02:30:00,
2013-03-30 22:40:00,40.3,37.6,30.11,SW,232,1.0,1.0,90,0.00,,,0.00,Wunderground v.1.15,2013-03-31 02:40:00,
2013-03-30 22:50:00,40.4,37.7,30.11,SSW,210,1.0,1.0,90,0.00,,,0.00,Wunderground v.1.15,2013-03-31 02:50:00,
2013-03-30 23:00:00,40.4,37.7,30.12,SW,215,1.0,1.0,90,0.00,,,0.00,Wunderground v.1.15,2013-03-31 03:00:00,
2013-03-30 23:10:00,40.4,37.7,30.12,SSE,158,1.0,1.0,90,0.00,,,0.00,Wunderground v.1.15,2013-03-31 03:10:00,
2013-03-30 23:20:00,40.4,38.0,30.11,SW,224,1.0,1.0,91,0.00,,,0.00,Wunderground v.1.15,2013-03-31 03:20:00,
2013-03-30 23:30:00,40.2,37.8,30.11,West,267,1.0,1.0,91,0.00,,,0.00,Wunderground v.1.15,2013-03-31 03:30:00,
2013-03-30 23:40:00,39.8,37.4,30.11,West,259,0.0,0.0,91,0.00,,,0.00,Wunderground v.1.15,2013-03-31 03:40:00,
2013-03-30 23:50:00,39.5,37.4,30.11,West,259,0.0,0.0,92,0.00,,,0.00,Wunderground v.1.15,2013-03-31 03:50:00,